Time;durP1;ratioP1;P1;durP2;ratioP2;P2;SDS_P1;SDS_P2;PMS_P1;PMS_P2;Temp;Humidity;BMP_temperature;BMP_pressure;BME280_temperature;BME280_humidity;BME280_pressure;Samples;Min_cycle;Max_cycle;Signal;HPM_P1;HPM_P2
2021/08/27 00:01:53;;;;;;;;;;;19.90;67.30;;;;;;5067613;28;20016;-59
2021/08/27 00:04:19;;;;;;;;;;;19.90;67.20;;;;;;5069859;28;19913;-58
2021/08/27 00:06:44;;;;;;;;;;;19.90;67.30;;;;;;5073206;28;19916;-54
2021/08/27 00:09:09;;;;;;;;;;;19.90;67.20;;;;;;5079554;28;19919;-57
2021/08/27 00:11:35;;;;;;;;;;;19.90;67.30;;;;;;5076766;28;19919;-58
2021/08/27 00:14:00;;;;;;;;;;;19.90;67.30;;;;;;5081020;28;19916;-56
2021/08/27 00:16:27;;;;;;;;;;;19.90;67.30;;;;;;5082798;28;19920;-54
2021/08/27 00:18:52;;;;;;;;;;;19.90;67.20;;;;;;5076965;28;20289;-60
2021/08/27 00:21:17;;;;;;;;;;;19.90;67.30;;;;;;5072442;28;19912;-58
2021/08/27 00:23:43;;;;;;;;;;;19.90;67.20;;;;;;5061581;28;19913;-56
2021/08/27 00:26:08;;;;;;;;;;;19.90;67.30;;;;;;5075601;28;19919;-54
2021/08/27 00:28:34;;;;;;;;;;;19.90;67.20;;;;;;5067865;28;19959;-59
2021/08/27 00:30:59;;;;;;;;;;;19.90;67.30;;;;;;5077270;28;20413;-53
2021/08/27 00:33:25;;;;;;;;;;;19.90;67.10;;;;;;5070637;28;19916;-56
2021/08/27 00:35:50;;;;;;;;;;;19.90;67.20;;;;;;5071711;28;19999;-59
2021/08/27 00:38:16;;;;;;;;;;;19.90;67.20;;;;;;5075585;28;20295;-57
2021/08/27 00:40:42;;;;;;;;;;;19.90;67.10;;;;;;5065896;28;19913;-55
2021/08/27 00:43:07;;;;;;;;;;;19.90;67.10;;;;;;5070514;28;20449;-55
2021/08/27 00:45:33;;;;;;;;;;;19.90;67.20;;;;;;5066731;28;20285;-58
2021/08/27 00:47:59;;;;;;;;;;;19.90;67.10;;;;;;5068188;28;19912;-56
2021/08/27 00:50:24;;;;;;;;;;;19.90;67.20;;;;;;5073203;28;20725;-53
2021/08/27 00:52:50;;;;;;;;;;;19.90;67.20;;;;;;5070872;28;19913;-54
2021/08/27 00:55:15;;;;;;;;;;;19.90;67.20;;;;;;5073043;28;19913;-58
2021/08/27 00:57:41;;;;;;;;;;;19.90;67.20;;;;;;5072799;28;19916;-58
2021/08/27 01:00:06;;;;;;;;;;;19.90;67.00;;;;;;5078062;28;19920;-57
2021/08/27 01:02:32;;;;;;;;;;;19.90;67.00;;;;;;5068008;28;19919;-58
2021/08/27 01:04:57;;;;;;;;;;;19.90;67.00;;;;;;5065281;28;19965;-55
2021/08/27 01:07:25;;;;;;;;;;;19.90;67.10;;;;;;5072085;28;19927;-56
2021/08/27 01:09:53;;;;;;;;;;;19.90;67.00;;;;;;5080479;28;19916;-54
2021/08/27 01:12:25;;;;;;;;;;;19.90;67.10;;;;;;5074513;28;19977;-54
2021/08/27 01:14:52;;;;;;;;;;;19.90;67.10;;;;;;5066999;28;19965;-59
2021/08/27 01:17:21;;;;;;;;;;;19.90;67.20;;;;;;5066908;28;19913;-58
2021/08/27 01:20:02;;;;;;;;;;;19.90;67.20;;;;;;5071224;28;19944;-57
2021/08/27 01:22:46;;;;;;;;;;;19.80;67.10;;;;;;5068970;28;19916;-56
2021/08/27 01:25:12;;;;;;;;;;;19.90;67.20;;;;;;5071210;28;19958;-55
2021/08/27 01:27:37;;;;;;;;;;;19.90;67.10;;;;;;5068714;28;19916;-57
2021/08/27 01:30:04;;;;;;;;;;;19.80;67.10;;;;;;5072268;28;19923;-56
2021/08/27 01:32:32;;;;;;;;;;;19.80;67.10;;;;;;5068039;28;20369;-59
2021/08/27 01:34:57;;;;;;;;;;;19.80;67.10;;;;;;5073217;28;19912;-57
2021/08/27 01:37:23;;;;;;;;;;;19.90;67.10;;;;;;5063257;28;19923;-56
2021/08/27 01:39:49;;;;;;;;;;;19.80;67.10;;;;;;5066842;28;20384;-57
2021/08/27 01:42:15;;;;;;;;;;;19.90;67.10;;;;;;5068576;28;19912;-55
2021/08/27 01:44:44;;;;;;;;;;;19.80;66.90;;;;;;5070017;28;19920;-57
2021/08/27 01:47:09;;;;;;;;;;;19.80;67.00;;;;;;5070981;28;19917;-58
2021/08/27 01:49:35;;;;;;;;;;;19.80;66.90;;;;;;5050489;28;19939;-54
2021/08/27 01:52:01;;;;;;;;;;;19.80;67.00;;;;;;5070645;28;19924;-57
2021/08/27 01:54:27;;;;;;;;;;;19.80;67.10;;;;;;5064238;28;19915;-54
2021/08/27 01:56:52;;;;;;;;;;;19.80;67.10;;;;;;5070810;28;20497;-58
2021/08/27 01:59:18;;;;;;;;;;;19.80;67.10;;;;;;5073192;28;19916;-52
2021/08/27 02:01:44;;;;;;;;;;;19.80;67.10;;;;;;5075224;28;19915;-52
2021/08/27 02:04:10;;;;;;;;;;;19.80;67.10;;;;;;5075765;28;20447;-54
2021/08/27 02:06:35;;;;;;;;;;;19.80;67.00;;;;;;5063589;28;20009;-54
2021/08/27 02:09:01;;;;;;;;;;;19.80;67.10;;;;;;5081603;28;19920;-57
2021/08/27 02:11:27;;;;;;;;;;;19.80;67.10;;;;;;5059850;28;19912;-54
2021/08/27 02:13:52;;;;;;;;;;;19.80;67.10;;;;;;5072830;28;20606;-56
2021/08/27 02:21:57;;;;;;;;;;;19.80;67.20;;;;;;5068774;22;19931;-59
2021/08/27 02:24:25;;;;;;;;;;;19.80;67.10;;;;;;5066429;28;19916;-56
2021/08/27 02:26:50;;;;;;;;;;;19.80;67.10;;;;;;5066207;28;20163;-59
2021/08/27 02:29:17;;;;;;;;;;;19.80;67.20;;;;;;5065170;28;20671;-57
2021/08/27 02:31:44;;;;;;;;;;;19.80;67.30;;;;;;5073273;28;19944;-56
2021/08/27 02:34:10;;;;;;;;;;;19.80;67.30;;;;;;5064282;28;19912;-59
2021/08/27 02:36:36;;;;;;;;;;;19.80;67.30;;;;;;5063500;28;19917;-57
2021/08/27 02:39:01;;;;;;;;;;;19.80;67.20;;;;;;5071255;28;19930;-58
2021/08/27 02:41:27;;;;;;;;;;;19.70;67.30;;;;;;5065794;28;20745;-59
2021/08/27 02:43:52;;;;;;;;;;;19.70;67.10;;;;;;5073010;28;19920;-56
2021/08/27 02:46:17;;;;;;;;;;;19.70;67.10;;;;;;5066988;28;19916;-58
2021/08/27 02:48:43;;;;;;;;;;;19.70;67.00;;;;;;5076026;28;20215;-57
2021/08/27 02:51:10;;;;;;;;;;;19.80;67.10;;;;;;5066940;28;20296;-58
2021/08/27 02:53:37;;;;;;;;;;;19.70;67.00;;;;;;5066100;28;19916;-59
2021/08/27 02:56:05;;;;;;;;;;;19.80;67.10;;;;;;5066490;28;19916;-58
2021/08/27 02:58:34;;;;;;;;;;;19.70;67.00;;;;;;5066242;28;20276;-57
2021/08/27 03:01:00;;;;;;;;;;;19.70;67.00;;;;;;5066803;28;19913;-57
2021/08/27 03:03:26;;;;;;;;;;;19.70;66.70;;;;;;5064163;28;20007;-58
2021/08/27 03:08:20;;;;;;;;;;;19.70;67.00;;;;;;5068838;28;20305;-57
2021/08/27 03:10:48;;;;;;;;;;;19.70;67.00;;;;;;5060174;28;19913;-59
2021/08/27 03:13:14;;;;;;;;;;;19.80;67.00;;;;;;5075908;28;20400;-58
2021/08/27 03:15:44;;;;;;;;;;;19.70;66.90;;;;;;5064217;28;19913;-59
2021/08/27 03:18:11;;;;;;;;;;;19.80;67.00;;;;;;5064616;28;19916;-52
2021/08/27 03:20:45;;;;;;;;;;;19.80;66.90;;;;;;5066113;28;19913;-57
2021/08/27 03:23:11;;;;;;;;;;;19.70;66.90;;;;;;5075929;28;19969;-59
2021/08/27 03:25:37;;;;;;;;;;;19.80;67.00;;;;;;5063204;28;20304;-54
2021/08/27 03:28:03;;;;;;;;;;;19.70;67.00;;;;;;5063526;28;20024;-59
2021/08/27 03:30:29;;;;;;;;;;;19.70;66.90;;;;;;5063008;28;20068;-55
2021/08/27 03:32:58;;;;;;;;;;;19.80;66.90;;;;;;5042821;28;19919;-57
2021/08/27 03:35:24;;;;;;;;;;;19.80;66.90;;;;;;5058769;28;19916;-56
2021/08/27 03:37:50;;;;;;;;;;;19.80;67.00;;;;;;5063574;28;20473;-59
2021/08/27 03:40:15;;;;;;;;;;;19.70;66.60;;;;;;5063874;28;19912;-59
2021/08/27 03:42:41;;;;;;;;;;;19.80;66.80;;;;;;5064444;28;19912;-58
2021/08/27 03:45:06;;;;;;;;;;;19.70;66.70;;;;;;5077822;28;19912;-56
2021/08/27 03:47:32;;;;;;;;;;;19.70;66.80;;;;;;5065618;28;19943;-58
2021/08/27 03:49:57;;;;;;;;;;;19.70;66.40;;;;;;5067525;28;19916;-63
2021/08/27 03:52:23;;;;;;;;;;;19.70;66.70;;;;;;5072842;28;19920;-55
2021/08/27 03:54:48;;;;;;;;;;;19.70;66.90;;;;;;5062369;28;20365;-56
2021/08/27 03:57:14;;;;;;;;;;;19.70;66.90;;;;;;5068118;28;19944;-59
2021/08/27 03:59:39;;;;;;;;;;;19.70;66.90;;;;;;5077932;28;19919;-59
2021/08/27 04:02:05;;;;;;;;;;;19.70;66.80;;;;;;5047778;28;19944;-59
2021/08/27 04:04:30;;;;;;;;;;;19.70;66.90;;;;;;5066670;28;19951;-59
2021/08/27 04:06:56;;;;;;;;;;;19.70;66.90;;;;;;5074519;28;19925;-59
2021/08/27 04:09:22;;;;;;;;;;;19.70;66.90;;;;;;5074807;28;19962;-56
2021/08/27 04:11:48;;;;;;;;;;;19.70;67.20;;;;;;5060712;28;20049;-59
2021/08/27 04:14:13;;;;;;;;;;;19.70;67.30;;;;;;5073944;28;20400;-57
2021/08/27 04:16:42;;;;;;;;;;;19.70;67.30;;;;;;5068532;28;19927;-59
2021/08/27 04:19:07;;;;;;;;;;;19.70;67.30;;;;;;5062882;28;19913;-58
2021/08/27 04:21:32;;;;;;;;;;;19.70;67.30;;;;;;5066791;28;19978;-59
2021/08/27 04:23:58;;;;;;;;;;;19.70;67.40;;;;;;5062319;28;19919;-57
2021/08/27 04:26:23;;;;;;;;;;;19.70;67.30;;;;;;5062488;28;19917;-56
2021/08/27 04:28:49;;;;;;;;;;;19.70;67.30;;;;;;5068066;28;19920;-59
2021/08/27 04:31:14;;;;;;;;;;;19.70;67.40;;;;;;5077331;28;19916;-58
2021/08/27 04:33:40;;;;;;;;;;;19.70;67.40;;;;;;5078146;28;19977;-57
2021/08/27 04:36:05;;;;;;;;;;;19.70;67.30;;;;;;5073196;28;19921;-59
2021/08/27 04:38:31;;;;;;;;;;;19.70;67.40;;;;;;5065323;28;19913;-59
2021/08/27 04:40:56;;;;;;;;;;;19.70;67.60;;;;;;5077131;28;19920;-55
2021/08/27 04:43:22;;;;;;;;;;;19.70;67.60;;;;;;5079429;28;19919;-59
2021/08/27 04:45:47;;;;;;;;;;;19.70;67.60;;;;;;5064031;28;21411;-58
2021/08/27 04:48:13;;;;;;;;;;;19.70;67.60;;;;;;5068321;28;20482;-59
2021/08/27 04:50:38;;;;;;;;;;;19.70;67.50;;;;;;5073893;28;19912;-57
2021/08/27 04:53:04;;;;;;;;;;;19.70;67.50;;;;;;5067751;28;19916;-58
2021/08/27 04:55:29;;;;;;;;;;;19.70;67.40;;;;;;5073751;28;19985;-54
2021/08/27 04:57:55;;;;;;;;;;;19.70;67.40;;;;;;5071414;28;20019;-59
2021/08/27 05:00:20;;;;;;;;;;;19.60;67.40;;;;;;5064319;28;19913;-57
2021/08/27 05:02:46;;;;;;;;;;;19.70;67.40;;;;;;5070706;28;20182;-56
2021/08/27 05:05:11;;;;;;;;;;;19.70;67.40;;;;;;5070726;28;19920;-57
2021/08/27 05:07:37;;;;;;;;;;;19.70;67.40;;;;;;5078135;28;19921;-56
2021/08/27 05:10:02;;;;;;;;;;;19.60;67.40;;;;;;5062320;28;20373;-58
2021/08/27 05:12:28;;;;;;;;;;;19.70;67.50;;;;;;5079140;28;19912;-63
2021/08/27 05:14:53;;;;;;;;;;;19.60;67.40;;;;;;5075303;28;19917;-58
2021/08/27 05:17:18;;;;;;;;;;;19.70;67.50;;;;;;5074225;28;20264;-58
2021/08/27 05:19:44;;;;;;;;;;;19.70;67.40;;;;;;5081264;28;19927;-59
2021/08/27 05:22:09;;;;;;;;;;;19.60;67.40;;;;;;5073052;28;19977;-57
2021/08/27 05:24:35;;;;;;;;;;;19.60;67.30;;;;;;5078481;28;19913;-57
2021/08/27 05:27:00;;;;;;;;;;;19.60;67.40;;;;;;5065879;28;20478;-59
2021/08/27 05:29:26;;;;;;;;;;;19.70;67.20;;;;;;5082032;28;20171;-57
2021/08/27 05:31:51;;;;;;;;;;;19.70;67.00;;;;;;5079414;28;19912;-56
2021/08/27 05:34:19;;;;;;;;;;;19.70;67.30;;;;;;5074725;28;19938;-59
2021/08/27 05:36:45;;;;;;;;;;;19.60;67.20;;;;;;5086077;28;20335;-59
2021/08/27 05:39:10;;;;;;;;;;;19.60;67.30;;;;;;5067020;28;19912;-57
2021/08/27 05:41:36;;;;;;;;;;;19.60;67.40;;;;;;5068789;28;20450;-57
2021/08/27 05:44:01;;;;;;;;;;;19.60;67.00;;;;;;5075293;28;19920;-56
2021/08/27 05:46:26;;;;;;;;;;;19.60;66.70;;;;;;5077053;28;19942;-59
2021/08/27 05:48:52;;;;;;;;;;;19.60;67.10;;;;;;5072163;28;20348;-58
2021/08/27 05:51:17;;;;;;;;;;;19.60;67.00;;;;;;5085820;28;19926;-57
2021/08/27 05:53:43;;;;;;;;;;;19.60;66.90;;;;;;5064448;28;19916;-58
2021/08/27 05:56:08;;;;;;;;;;;19.60;67.10;;;;;;5078246;28;19913;-53
2021/08/27 05:58:34;;;;;;;;;;;19.60;67.20;;;;;;5073446;28;19939;-59
2021/08/27 06:00:59;;;;;;;;;;;19.60;67.20;;;;;;5083138;28;19974;-58
2021/08/27 06:03:25;;;;;;;;;;;19.60;67.10;;;;;;5082001;28;19912;-59
2021/08/27 06:05:50;;;;;;;;;;;19.60;67.20;;;;;;5076530;28;19925;-57
2021/08/27 06:08:15;;;;;;;;;;;19.60;66.80;;;;;;5077278;28;19920;-59
2021/08/27 06:10:41;;;;;;;;;;;19.60;67.10;;;;;;5077821;28;19983;-56
2021/08/27 06:13:06;;;;;;;;;;;19.60;66.90;;;;;;5080404;28;19912;-59
2021/08/27 06:15:32;;;;;;;;;;;19.60;67.20;;;;;;5084936;28;19912;-57
2021/08/27 06:17:57;;;;;;;;;;;19.60;67.10;;;;;;5079297;28;19920;-54
2021/08/27 06:20:23;;;;;;;;;;;19.60;67.20;;;;;;5073291;28;19916;-59
2021/08/27 06:22:48;;;;;;;;;;;19.60;67.20;;;;;;5064809;28;19924;-56
2021/08/27 06:25:14;;;;;;;;;;;19.60;67.20;;;;;;5065069;28;19919;-59
2021/08/27 06:27:39;;;;;;;;;;;19.60;67.20;;;;;;5077534;28;20482;-58
2021/08/27 06:30:05;;;;;;;;;;;19.60;67.20;;;;;;5072893;28;19916;-55
2021/08/27 06:32:30;;;;;;;;;;;19.60;67.20;;;;;;5073604;28;19955;-57
2021/08/27 06:34:56;;;;;;;;;;;19.60;67.20;;;;;;5074203;28;19927;-59
2021/08/27 06:38:19;;;;;;;;;;;19.60;67.10;;;;;;5078105;28;19923;-58
2021/08/27 06:40:07;;;;;;;;;;;19.60;67.90;;;;;;5068846;28;19912;-56
2021/08/27 06:42:33;;;;;;;;;;;19.60;67.10;;;;;;5066233;28;20030;-59
2021/08/27 06:44:58;;;;;;;;;;;19.60;67.10;;;;;;5069254;28;19937;-63
2021/08/27 06:47:24;;;;;;;;;;;19.60;67.20;;;;;;5078593;28;19917;-59
2021/08/27 06:49:49;;;;;;;;;;;19.50;67.20;;;;;;5055254;28;21667;-58
2021/08/27 06:52:15;;;;;;;;;;;19.50;67.20;;;;;;5065187;28;19966;-57
2021/08/27 06:54:40;;;;;;;;;;;19.60;67.20;;;;;;5077717;28;19913;-55
2021/08/27 06:57:05;;;;;;;;;;;19.50;67.10;;;;;;5073021;28;19912;-53
2021/08/27 06:59:31;;;;;;;;;;;19.50;67.30;;;;;;5074023;28;20382;-56
2021/08/27 07:01:56;;;;;;;;;;;19.50;67.40;;;;;;5082720;28;19920;-57
2021/08/27 07:04:24;;;;;;;;;;;19.50;67.50;;;;;;5063522;28;19920;-57
2021/08/27 07:06:49;;;;;;;;;;;19.50;67.50;;;;;;5076035;28;19924;-56
2021/08/27 07:09:15;;;;;;;;;;;19.60;67.40;;;;;;5082285;28;19916;-59
2021/08/27 07:11:40;;;;;;;;;;;19.50;67.30;;;;;;5064237;28;19912;-58
2021/08/27 07:14:07;;;;;;;;;;;19.50;67.50;;;;;;5076646;28;19913;-55
2021/08/27 07:16:32;;;;;;;;;;;19.50;67.50;;;;;;5074045;28;20358;-56
2021/08/27 07:18:57;;;;;;;;;;;19.50;67.60;;;;;;5070538;28;19919;-59
2021/08/27 07:21:23;;;;;;;;;;;19.50;67.80;;;;;;5079975;28;19916;-58
2021/08/27 07:23:48;;;;;;;;;;;19.50;67.80;;;;;;5073985;28;20376;-56
2021/08/27 07:26:14;;;;;;;;;;;19.50;68.00;;;;;;5072068;28;19974;-58
2021/08/27 07:28:39;;;;;;;;;;;19.50;68.00;;;;;;5075774;28;19922;-57
2021/08/27 07:31:05;;;;;;;;;;;19.50;68.10;;;;;;5068362;28;19934;-57
2021/08/27 07:33:30;;;;;;;;;;;19.60;68.10;;;;;;5072446;28;19916;-59
2021/08/27 07:35:56;;;;;;;;;;;19.60;67.90;;;;;;5081640;28;19961;-58
2021/08/27 07:38:22;;;;;;;;;;;19.50;67.90;;;;;;5067412;28;19917;-57
2021/08/27 07:40:47;;;;;;;;;;;19.60;67.70;;;;;;5076261;28;20007;-59
2021/08/27 07:43:13;;;;;;;;;;;19.60;67.40;;;;;;5058001;28;19916;-56
2021/08/27 07:45:38;;;;;;;;;;;19.50;67.30;;;;;;5076916;28;19970;-58
2021/08/27 07:48:04;;;;;;;;;;;19.60;66.80;;;;;;5067742;28;19917;-56
2021/08/27 07:50:29;;;;;;;;;;;19.60;67.60;;;;;;5062341;28;19967;-61
2021/08/27 07:52:54;;;;;;;;;;;19.50;68.00;;;;;;5080276;28;19938;-59
2021/08/27 07:55:22;;;;;;;;;;;19.60;68.30;;;;;;5082313;28;19916;-59
2021/08/27 07:57:47;;;;;;;;;;;19.50;68.10;;;;;;5075695;28;19923;-58
2021/08/27 08:00:13;;;;;;;;;;;19.50;68.10;;;;;;5074267;28;19913;-57
2021/08/27 08:02:38;;;;;;;;;;;19.50;68.40;;;;;;5065160;28;20474;-59
2021/08/27 08:05:04;;;;;;;;;;;19.50;68.00;;;;;;5083045;28;20491;-59
2021/08/27 08:07:29;;;;;;;;;;;19.60;68.50;;;;;;5075267;28;19924;-63
2021/08/27 08:09:55;;;;;;;;;;;19.50;69.20;;;;;;5073013;28;20272;-58
2021/08/27 08:12:20;;;;;;;;;;;19.50;69.10;;;;;;5061376;28;19916;-57
2021/08/27 08:14:46;;;;;;;;;;;19.50;69.20;;;;;;5063811;28;19920;-59
2021/08/27 08:17:11;;;;;;;;;;;19.50;69.20;;;;;;5069033;28;19933;-57
2021/08/27 08:19:37;;;;;;;;;;;19.50;69.00;;;;;;5066473;28;20293;-59
2021/08/27 08:22:02;;;;;;;;;;;19.50;69.10;;;;;;5079402;28;20373;-59
2021/08/27 08:24:28;;;;;;;;;;;19.50;68.90;;;;;;5076508;28;19992;-59
2021/08/27 08:26:53;;;;;;;;;;;19.50;68.90;;;;;;5063254;28;19931;-59
2021/08/27 08:29:19;;;;;;;;;;;19.50;68.70;;;;;;5072165;28;19912;-57
2021/08/27 08:31:46;;;;;;;;;;;19.50;68.60;;;;;;5072050;28;19924;-59
2021/08/27 08:34:11;;;;;;;;;;;19.50;68.70;;;;;;5071972;28;19912;-59
2021/08/27 08:36:37;;;;;;;;;;;19.50;68.90;;;;;;5075148;28;19919;-59
2021/08/27 08:39:04;;;;;;;;;;;19.50;68.90;;;;;;5080303;28;19920;-59
2021/08/27 08:41:30;;;;;;;;;;;19.50;68.60;;;;;;5071352;28;20445;-58
2021/08/27 08:43:55;;;;;;;;;;;19.50;68.40;;;;;;5075996;28;19912;-59
2021/08/27 08:46:21;;;;;;;;;;;19.50;68.50;;;;;;5082982;28;19923;-58
2021/08/27 08:48:48;;;;;;;;;;;19.50;68.50;;;;;;5072204;28;19950;-57
2021/08/27 08:51:14;;;;;;;;;;;19.50;68.60;;;;;;5078593;28;20533;-56
2021/08/27 08:53:40;;;;;;;;;;;19.50;68.50;;;;;;5062553;28;19916;-57
2021/08/27 08:56:07;;;;;;;;;;;19.50;68.80;;;;;;5066171;28;20580;-59
2021/08/27 08:58:33;;;;;;;;;;;19.50;68.80;;;;;;5033302;28;19928;-55
2021/08/27 09:00:58;;;;;;;;;;;19.50;68.90;;;;;;5064076;28;19912;-59
2021/08/27 09:03:24;;;;;;;;;;;19.50;68.80;;;;;;5053912;28;19912;-58
2021/08/27 09:05:50;;;;;;;;;;;19.50;69.10;;;;;;5083533;28;19912;-58
2021/08/27 09:08:16;;;;;;;;;;;19.50;69.10;;;;;;5054924;28;20418;-58
2021/08/27 09:10:42;;;;;;;;;;;19.50;68.80;;;;;;5079728;28;19920;-57
2021/08/27 09:13:08;;;;;;;;;;;19.50;69.10;;;;;;5052161;28;19936;-60
2021/08/27 09:15:33;;;;;;;;;;;19.50;69.00;;;;;;5063865;28;19912;-57
2021/08/27 09:17:59;;;;;;;;;;;19.50;69.10;;;;;;5060949;28;19916;-55
2021/08/27 09:20:25;;;;;;;;;;;19.50;69.00;;;;;;5063188;28;19912;-55
2021/08/27 09:22:52;;;;;;;;;;;19.50;69.00;;;;;;5073929;28;20301;-59
2021/08/27 09:25:18;;;;;;;;;;;19.50;68.80;;;;;;5060255;28;19919;-58
2021/08/27 09:28:02;;;;;;;;;;;19.50;68.80;;;;;;5072153;28;20366;-56
2021/08/27 09:30:28;;;;;;;;;;;19.50;68.80;;;;;;5065016;28;19913;-56
2021/08/27 09:32:54;;;;;;;;;;;19.50;68.50;;;;;;5076213;28;20340;-56
2021/08/27 09:35:20;;;;;;;;;;;19.50;68.40;;;;;;5059771;28;19957;-57
2021/08/27 09:37:47;;;;;;;;;;;19.50;68.60;;;;;;5075775;28;19923;-57
2021/08/27 09:40:33;;;;;;;;;;;19.50;68.80;;;;;;5052645;28;19912;-57
2021/08/27 09:42:58;;;;;;;;;;;19.50;68.70;;;;;;5074285;28;20289;-57
2021/08/27 09:45:36;;;;;;;;;;;19.50;68.80;;;;;;5055888;28;19912;-59
2021/08/27 09:48:05;;;;;;;;;;;19.50;68.80;;;;;;5077925;28;20100;-58
2021/08/27 09:50:31;;;;;;;;;;;19.50;68.80;;;;;;5041599;28;19915;-57
2021/08/27 09:52:58;;;;;;;;;;;19.50;68.60;;;;;;5077765;28;19920;-58
2021/08/27 09:55:23;;;;;;;;;;;19.50;68.50;;;;;;5050254;28;20254;-59
2021/08/27 09:57:50;;;;;;;;;;;19.50;68.50;;;;;;5083623;28;20546;-58
2021/08/27 10:00:19;;;;;;;;;;;19.50;68.40;;;;;;5048717;28;20377;-55
2021/08/27 10:02:44;;;;;;;;;;;19.50;68.60;;;;;;5066985;28;19966;-57
2021/08/27 10:05:11;;;;;;;;;;;19.50;69.20;;;;;;5051059;28;19945;-56
2021/08/27 10:07:42;;;;;;;;;;;19.50;68.40;;;;;;5064736;28;20433;-59
2021/08/27 10:10:09;;;;;;;;;;;19.50;68.50;;;;;;5054791;28;20023;-58
2021/08/27 10:12:35;;;;;;;;;;;19.40;68.10;;;;;;5047658;28;20599;-59
2021/08/27 10:15:00;;;;;;;;;;;19.50;68.50;;;;;;5084174;28;19970;-58
2021/08/27 10:17:27;;;;;;;;;;;19.50;68.60;;;;;;5067288;28;20373;-57
2021/08/27 10:19:52;;;;;;;;;;;19.50;68.60;;;;;;5073838;28;20349;-57
2021/08/27 10:22:18;;;;;;;;;;;19.50;69.30;;;;;;5058871;28;19919;-58
2021/08/27 10:24:44;;;;;;;;;;;19.50;69.70;;;;;;5077269;28;20461;-59
2021/08/27 10:27:10;;;;;;;;;;;19.40;69.70;;;;;;5067571;28;20339;-59
2021/08/27 10:29:36;;;;;;;;;;;19.40;69.60;;;;;;5067742;28;19916;-56
2021/08/27 10:32:01;;;;;;;;;;;19.50;69.60;;;;;;5060322;28;19946;-58
2021/08/27 10:34:43;;;;;;;;;;;19.50;69.40;;;;;;5093251;22;19925;-59
2021/08/27 10:37:08;;;;;;;;;;;19.50;69.50;;;;;;5074532;28;19912;-58
2021/08/27 10:39:45;;;;;;;;;;;19.50;69.50;;;;;;5073156;28;19973;-57
2021/08/27 10:42:30;;;;;;;;;;;19.40;69.40;;;;;;5058108;28;20133;-58
2021/08/27 10:44:55;;;;;;;;;;;19.50;69.40;;;;;;5099511;28;19965;-58
2021/08/27 10:47:21;;;;;;;;;;;19.50;69.40;;;;;;5085320;28;20437;-58
2021/08/27 10:49:46;;;;;;;;;;;19.50;69.30;;;;;;5090862;28;19919;-58
2021/08/27 10:52:33;;;;;;;;;;;19.40;69.40;;;;;;5087008;28;19920;-59
2021/08/27 10:55:24;;;;;;;;;;;19.50;69.80;;;;;;5087450;27;19937;-58
2021/08/27 10:58:02;;;;;;;;;;;19.40;69.90;;;;;;5089124;28;20007;-57
2021/08/27 11:00:34;;;;;;;;;;;19.50;69.80;;;;;;5100442;28;19912;-59
2021/08/27 11:02:59;;;;;;;;;;;19.50;69.40;;;;;;5093541;28;19912;-57
2021/08/27 11:05:31;;;;;;;;;;;19.50;69.10;;;;;;5089497;28;19912;-58
2021/08/27 11:08:00;;;;;;;;;;;19.50;68.90;;;;;;5098020;27;20006;-60
2021/08/27 11:10:25;;;;;;;;;;;19.50;68.80;;;;;;5085102;28;20365;-58
2021/08/27 11:12:56;;;;;;;;;;;19.50;68.80;;;;;;5093732;28;19920;-60
2021/08/27 11:15:22;;;;;;;;;;;19.50;68.80;;;;;;5084407;28;20392;-59
2021/08/27 11:18:06;;;;;;;;;;;19.50;68.60;;;;;;5088508;28;19920;-60
2021/08/27 11:20:32;;;;;;;;;;;19.50;68.60;;;;;;5081868;28;19912;-58
2021/08/27 11:22:58;;;;;;;;;;;19.50;68.60;;;;;;5079878;28;20311;-64
2021/08/27 11:25:24;;;;;;;;;;;19.50;68.50;;;;;;5087021;28;19943;-60
2021/08/27 11:28:08;;;;;;;;;;;19.50;68.60;;;;;;5096179;27;20035;-59
2021/08/27 11:30:34;;;;;;;;;;;19.50;68.70;;;;;;5083223;28;19916;-58
2021/08/27 11:33:00;;;;;;;;;;;19.50;68.80;;;;;;5094731;28;20121;-58
2021/08/27 11:35:26;;;;;;;;;;;19.50;69.40;;;;;;5086611;28;20323;-57
2021/08/27 11:37:58;;;;;;;;;;;19.50;68.80;;;;;;5103738;27;19916;-58
2021/08/27 11:40:23;;;;;;;;;;;19.50;68.90;;;;;;5093255;28;20292;-57
2021/08/27 11:42:54;;;;;;;;;;;19.50;68.90;;;;;;5077507;28;19962;-58
2021/08/27 11:45:21;;;;;;;;;;;19.50;69.00;;;;;;5086178;28;20609;-58
2021/08/27 11:47:53;;;;;;;;;;;19.50;69.00;;;;;;5088466;28;19944;-58
2021/08/27 11:50:32;;;;;;;;;;;19.50;69.00;;;;;;5084018;28;19916;-57
2021/08/27 11:52:58;;;;;;;;;;;19.50;69.10;;;;;;5083236;28;19920;-60
2021/08/27 11:55:23;;;;;;;;;;;19.50;69.50;;;;;;5090512;28;20039;-58
2021/08/27 11:57:49;;;;;;;;;;;19.50;70.60;;;;;;5091513;28;19911;-58
2021/08/27 12:00:15;;;;;;;;;;;19.50;70.50;;;;;;5090487;28;19912;-58
2021/08/27 12:02:41;;;;;;;;;;;19.50;70.40;;;;;;5082178;28;20574;-59
2021/08/27 12:05:10;;;;;;;;;;;19.50;70.30;;;;;;5097006;28;19912;-58
2021/08/27 12:07:40;;;;;;;;;;;19.50;70.10;;;;;;5084266;28;20508;-60
2021/08/27 12:10:06;;;;;;;;;;;19.50;70.10;;;;;;5077101;28;20026;-59
2021/08/27 12:12:32;;;;;;;;;;;19.50;70.10;;;;;;5082614;28;19924;-58
2021/08/27 12:14:58;;;;;;;;;;;19.50;70.10;;;;;;5083057;28;20598;-64
2021/08/27 12:17:24;;;;;;;;;;;19.50;70.00;;;;;;5088448;28;19922;-58
2021/08/27 12:19:50;;;;;;;;;;;19.50;70.10;;;;;;5081834;28;20479;-59
2021/08/27 12:22:17;;;;;;;;;;;19.50;70.10;;;;;;5080155;28;19919;-58
2021/08/27 12:24:42;;;;;;;;;;;19.50;70.00;;;;;;5084567;28;20521;-59
2021/08/27 12:27:08;;;;;;;;;;;19.50;70.10;;;;;;5079159;28;20007;-59
2021/08/27 12:29:33;;;;;;;;;;;19.50;70.60;;;;;;5081654;28;20626;-57
2021/08/27 12:31:59;;;;;;;;;;;19.50;71.70;;;;;;5082170;28;19916;-57
2021/08/27 12:34:24;;;;;;;;;;;19.50;72.20;;;;;;5100304;28;19920;-57
2021/08/27 12:36:50;;;;;;;;;;;19.50;72.50;;;;;;5092943;28;20531;-60
2021/08/27 12:39:15;;;;;;;;;;;19.40;72.70;;;;;;5085634;28;19926;-58
2021/08/27 12:41:41;;;;;;;;;;;19.50;72.60;;;;;;5083618;28;19912;-57
2021/08/27 12:44:07;;;;;;;;;;;19.40;72.70;;;;;;5082887;28;19936;-58
2021/08/27 12:46:33;;;;;;;;;;;19.50;72.80;;;;;;5080244;28;19923;-58
2021/08/27 12:49:11;;;;;;;;;;;19.40;72.50;;;;;;5084471;28;19916;-60
2021/08/27 12:51:41;;;;;;;;;;;19.40;72.50;;;;;;5092010;28;19913;-59
2021/08/27 12:54:06;;;;;;;;;;;19.40;72.60;;;;;;5068885;28;20343;-60
2021/08/27 12:56:32;;;;;;;;;;;19.40;72.50;;;;;;5081960;28;19912;-58
2021/08/27 12:58:57;;;;;;;;;;;19.40;72.60;;;;;;5088526;28;19916;-60
2021/08/27 13:01:26;;;;;;;;;;;19.40;72.50;;;;;;5091901;28;19916;-58
2021/08/27 13:03:55;;;;;;;;;;;19.40;72.50;;;;;;5083616;28;20342;-59
2021/08/27 13:06:30;;;;;;;;;;;19.40;72.10;;;;;;5097623;28;19915;-60
2021/08/27 13:08:57;;;;;;;;;;;19.40;72.20;;;;;;5091829;27;20003;-59
2021/08/27 13:11:22;;;;;;;;;;;19.40;72.10;;;;;;5082284;28;19916;-59
2021/08/27 13:13:48;;;;;;;;;;;19.40;72.00;;;;;;5088890;28;22024;-59
2021/08/27 13:16:14;;;;;;;;;;;19.40;71.80;;;;;;5082121;28;19991;-58
2021/08/27 13:18:39;;;;;;;;;;;19.40;71.60;;;;;;5080752;28;19913;-60
2021/08/27 13:21:05;;;;;;;;;;;19.50;71.70;;;;;;5084584;28;19943;-59
2021/08/27 13:23:31;;;;;;;;;;;19.50;71.60;;;;;;5082573;28;20646;-59
2021/08/27 13:25:57;;;;;;;;;;;19.50;71.40;;;;;;5101903;28;19916;-57
2021/08/27 13:28:23;;;;;;;;;;;19.40;71.10;;;;;;5092060;28;19912;-58
2021/08/27 13:30:49;;;;;;;;;;;19.50;71.30;;;;;;5099016;28;19971;-58
2021/08/27 13:33:14;;;;;;;;;;;19.50;71.20;;;;;;5082187;28;20313;-58
2021/08/27 13:35:42;;;;;;;;;;;19.50;70.90;;;;;;5081531;28;20029;-59
2021/08/27 13:38:08;;;;;;;;;;;19.50;71.10;;;;;;5089204;28;20632;-60
2021/08/27 13:40:34;;;;;;;;;;;19.50;70.90;;;;;;5097120;28;19918;-60
2021/08/27 13:42:59;;;;;;;;;;;19.50;70.80;;;;;;5085783;28;19911;-63
2021/08/27 13:45:25;;;;;;;;;;;19.50;70.60;;;;;;5099028;28;19912;-59
2021/08/27 13:47:50;;;;;;;;;;;19.50;70.60;;;;;;5090445;28;20369;-59
2021/08/27 13:50:16;;;;;;;;;;;19.50;70.50;;;;;;5096549;28;19912;-59
2021/08/27 13:52:42;;;;;;;;;;;19.50;70.30;;;;;;5098641;28;19983;-60
2021/08/27 13:55:08;;;;;;;;;;;19.50;70.20;;;;;;5087442;28;19916;-60
2021/08/27 13:57:33;;;;;;;;;;;19.50;70.30;;;;;;5091620;28;19999;-59
2021/08/27 13:59:58;;;;;;;;;;;19.50;70.10;;;;;;5091301;28;19923;-59
2021/08/27 14:02:24;;;;;;;;;;;19.50;70.10;;;;;;5090679;27;20478;-58
2021/08/27 14:04:50;;;;;;;;;;;19.50;70.10;;;;;;5093064;28;20311;-59
2021/08/27 14:07:15;;;;;;;;;;;19.50;69.90;;;;;;5104671;28;19922;-58
2021/08/27 14:09:41;;;;;;;;;;;19.50;69.90;;;;;;5085956;28;19912;-60
2021/08/27 14:12:06;;;;;;;;;;;19.50;69.90;;;;;;5086657;28;19919;-59
2021/08/27 14:14:32;;;;;;;;;;;19.50;69.80;;;;;;5094280;28;20562;-58
2021/08/27 14:16:58;;;;;;;;;;;19.50;69.70;;;;;;5074367;28;19962;-60
2021/08/27 14:19:23;;;;;;;;;;;19.50;69.70;;;;;;5085151;28;19920;-59
2021/08/27 14:21:49;;;;;;;;;;;19.50;69.60;;;;;;5088696;28;19912;-58